createdAt,value
2023-01-22T00:02:22.829Z,96504.44
2023-01-22T00:04:49.641Z,96500.88
2023-01-22T00:07:16.597Z,96500.50
2023-01-22T00:09:43.187Z,96504.81
2023-01-22T00:12:09.947Z,96505.63
2023-01-22T00:14:37.660Z,96505.41
2023-01-22T00:17:04.601Z,96493.53
2023-01-22T00:19:31.203Z,96505.44
2023-01-22T00:21:57.945Z,96503.19
2023-01-22T00:24:24.818Z,96498.78
2023-01-22T00:26:51.730Z,96491.66
2023-01-22T00:29:18.426Z,96491.44
2023-01-22T00:31:45.148Z,96507.69
2023-01-22T00:34:12.181Z,96495.13
2023-01-22T00:36:39.720Z,96495.97
2023-01-22T00:39:06.676Z,96489.84
2023-01-22T00:41:34.339Z,96492.88
2023-01-22T00:44:03.978Z,96492.53
2023-01-22T00:46:32.956Z,96495.22
2023-01-22T00:48:59.788Z,96491.34
2023-01-22T00:51:26.350Z,96510.50
2023-01-22T00:56:37.916Z,96494.50
2023-01-22T00:59:06.086Z,96490.50
2023-01-22T01:01:35.271Z,96491.34
2023-01-22T01:04:02.294Z,96489.75
2023-01-22T01:06:29.949Z,96499.59
2023-01-22T01:08:56.722Z,96488.69
2023-01-22T01:11:24.043Z,96492.31
2023-01-22T01:13:50.904Z,96499.72
2023-01-22T01:16:17.558Z,96481.00
2023-01-22T01:18:46.939Z,96483.41
2023-01-22T01:21:13.711Z,96494.53
2023-01-22T01:23:40.543Z,96493.34
2023-01-22T01:26:07.640Z,96490.94
2023-01-22T01:28:35.176Z,96496.44
2023-01-22T01:31:02.211Z,96486.78
2023-01-22T01:33:29.016Z,96489.56
2023-01-22T01:35:56.957Z,96484.38
2023-01-22T01:38:23.723Z,96502.44
2023-01-22T01:40:50.670Z,96487.88
2023-01-22T01:43:18.241Z,96487.13
2023-01-22T01:45:44.736Z,96491.16
2023-01-22T01:48:13.936Z,96486.19
2023-01-22T01:50:40.878Z,96497.56
2023-01-22T01:53:10.156Z,96489.84
2023-01-22T01:55:37.091Z,96474.00
2023-01-22T01:58:06.028Z,96486.00
2023-01-22T02:00:32.911Z,96495.47
2023-01-22T02:03:00.478Z,96484.31
2023-01-22T02:05:27.441Z,96485.78
2023-01-22T02:07:56.369Z,96484.50
2023-01-22T02:10:23.000Z,96495.56
2023-01-22T02:12:57.035Z,96503.47
2023-01-22T02:15:24.337Z,96497.84
2023-01-22T02:17:51.840Z,96494.25
2023-01-22T02:20:25.854Z,96520.66
2023-01-22T02:22:52.568Z,96510.44
2023-01-22T02:25:19.420Z,96522.63
2023-01-22T02:27:45.939Z,96532.94
2023-01-22T02:30:13.425Z,96513.56
2023-01-22T02:32:40.193Z,96518.84
2023-01-22T02:35:07.111Z,96520.69
2023-01-22T02:37:33.640Z,96526.41
2023-01-22T02:40:01.431Z,96531.34
2023-01-22T02:42:30.371Z,96526.84
2023-01-22T02:44:57.467Z,96532.50
2023-01-22T02:47:24.355Z,96527.88
2023-01-22T02:49:51.253Z,96521.88
2023-01-22T02:52:19.370Z,96533.47
2023-01-22T02:54:46.107Z,96533.69
2023-01-22T02:57:13.202Z,96536.28
2023-01-22T02:59:40.119Z,96536.81
2023-01-22T03:02:06.729Z,96544.25
2023-01-22T03:04:33.727Z,96534.66
2023-01-22T03:07:00.324Z,96542.88
2023-01-22T03:12:42.749Z,96534.91
2023-01-22T03:15:09.605Z,96548.66
2023-01-22T03:17:36.493Z,96546.63
2023-01-22T03:20:03.308Z,96553.72
2023-01-22T03:22:29.904Z,96552.09
2023-01-22T03:27:40.860Z,96540.22
2023-01-22T03:30:07.451Z,96540.56
2023-01-22T03:32:34.230Z,96535.28
2023-01-22T03:35:01.177Z,96532.59
2023-01-22T03:37:27.706Z,96530.47
2023-01-22T03:39:59.563Z,96533.25
2023-01-22T03:42:26.773Z,96532.19
2023-01-22T03:44:53.677Z,96534.78
2023-01-22T03:47:20.885Z,96537.00
2023-01-22T03:49:47.753Z,96538.16
2023-01-22T03:52:14.560Z,96543.50
2023-01-22T03:54:41.529Z,96541.81
2023-01-22T03:57:10.425Z,96540.78
2023-01-22T03:59:36.980Z,96537.94
2023-01-22T04:02:04.323Z,96533.69
2023-01-22T04:04:31.036Z,96533.97
2023-01-22T04:06:58.006Z,96534.03
2023-01-22T04:09:24.847Z,96535.13
2023-01-22T04:11:51.422Z,96536.50
2023-01-22T04:14:20.463Z,96538.44
2023-01-22T04:16:47.179Z,96540.28
2023-01-22T04:19:13.763Z,96543.16
2023-01-22T04:21:40.500Z,96549.28
2023-01-22T04:26:57.667Z,96546.97
2023-01-22T04:29:24.579Z,96547.69
2023-01-22T04:31:54.400Z,96552.25
2023-01-22T04:34:21.174Z,96552.88
2023-01-22T04:36:47.855Z,96556.19
2023-01-22T04:39:14.517Z,96550.91
2023-01-22T04:41:41.385Z,96563.19
2023-01-22T04:44:08.183Z,96557.81
2023-01-22T04:46:36.785Z,96549.81
2023-01-22T04:49:03.653Z,96552.22
2023-01-22T04:51:30.518Z,96554.59
2023-01-22T04:56:50.107Z,96557.63
2023-01-22T04:59:16.870Z,96563.66
2023-01-22T05:01:44.190Z,96572.16
2023-01-22T05:04:13.771Z,96562.13
2023-01-22T05:06:41.301Z,96557.19
2023-01-22T05:09:07.991Z,96559.63
2023-01-22T05:11:34.582Z,96559.50
2023-01-22T05:14:01.394Z,96557.97
2023-01-22T05:16:28.300Z,96565.44
2023-01-22T05:18:54.867Z,96563.56
2023-01-22T05:21:23.754Z,96553.50
2023-01-22T05:23:50.632Z,96554.59
2023-01-22T05:26:18.184Z,96568.41
2023-01-22T05:28:47.191Z,96558.94
2023-01-22T05:31:14.141Z,96563.09
2023-01-22T05:33:40.985Z,96561.63
2023-01-22T05:36:08.201Z,96561.97
2023-01-22T05:38:36.074Z,96547.19
2023-01-22T05:41:02.951Z,96542.72
2023-01-22T05:43:29.837Z,96544.00
2023-01-22T05:45:56.670Z,96547.38
2023-01-22T05:48:23.516Z,96546.50
2023-01-22T05:50:50.515Z,96547.19
2023-01-22T05:53:17.407Z,96554.19
2023-01-22T05:55:44.306Z,96539.72
2023-01-22T05:58:13.287Z,96557.00
2023-01-22T06:00:40.184Z,96555.47
2023-01-22T06:03:06.692Z,96553.22
2023-01-22T06:05:33.301Z,96544.69
2023-01-22T06:08:02.340Z,96548.44
2023-01-22T06:10:28.967Z,96558.31
2023-01-22T06:12:57.257Z,96570.34
2023-01-22T06:15:24.918Z,96571.03
2023-01-22T06:17:51.734Z,96559.09
2023-01-22T06:20:18.642Z,96558.88
2023-01-22T06:22:47.835Z,96574.75
2023-01-22T06:25:14.682Z,96551.44
2023-01-22T06:27:41.551Z,96574.31
2023-01-22T06:30:08.888Z,96571.03
2023-01-22T06:32:37.924Z,96593.97
2023-01-22T06:35:07.005Z,96583.28
2023-01-22T06:37:33.591Z,96587.06
2023-01-22T06:40:02.690Z,96588.75
2023-01-22T06:42:29.296Z,96576.06
2023-01-22T06:44:56.220Z,96574.47
2023-01-22T06:47:30.303Z,96597.06
2023-01-22T06:49:57.649Z,96580.28
2023-01-22T06:52:24.443Z,96568.97
2023-01-22T06:54:51.263Z,96555.41
2023-01-22T06:57:18.603Z,96567.97
2023-01-22T06:59:45.569Z,96588.09
2023-01-22T07:02:12.517Z,96588.44
2023-01-22T07:04:39.481Z,96586.81
2023-01-22T07:07:10.396Z,96601.00
2023-01-22T07:09:37.064Z,96596.69
2023-01-22T07:12:05.530Z,96599.09
2023-01-22T07:14:36.753Z,96600.34
2023-01-22T07:17:04.453Z,96604.84
2023-01-22T07:19:31.335Z,96610.19
2023-01-22T07:21:59.483Z,96609.06
2023-01-22T07:24:26.056Z,96614.44
2023-01-22T07:26:53.453Z,96632.75
2023-01-22T07:29:19.979Z,96605.88
2023-01-22T07:31:49.375Z,96625.09
2023-01-22T07:34:16.635Z,96620.47
2023-01-22T07:36:43.219Z,96622.50
2023-01-22T07:39:10.269Z,96633.00
2023-01-22T07:41:37.828Z,96630.06
2023-01-22T07:44:05.382Z,96629.09
2023-01-22T07:46:34.029Z,96627.09
2023-01-22T07:49:00.647Z,96636.94
2023-01-22T07:51:27.664Z,96631.38
2023-01-22T07:53:54.564Z,96635.75
2023-01-22T07:56:23.672Z,96633.69
2023-01-22T07:58:50.348Z,96650.38
2023-01-22T08:01:17.260Z,96638.22
2023-01-22T08:06:36.576Z,96642.13
2023-01-22T08:09:03.948Z,96639.19
2023-01-22T08:11:30.777Z,96657.91
2023-01-22T08:13:57.670Z,96653.56
2023-01-22T08:16:24.460Z,96654.59
2023-01-22T08:18:51.435Z,96647.56
2023-01-22T08:24:07.205Z,96646.13
2023-01-22T08:26:33.804Z,96646.09
2023-01-22T08:29:04.247Z,96644.59
2023-01-22T08:31:32.155Z,96644.16
2023-01-22T08:33:59.055Z,96662.44
2023-01-22T08:36:25.878Z,96650.03
2023-01-22T08:38:52.413Z,96646.06
2023-01-22T08:41:19.113Z,96667.13
2023-01-22T08:43:45.686Z,96665.06
2023-01-22T08:46:12.368Z,96680.44
2023-01-22T08:48:41.525Z,96652.97
2023-01-22T08:51:09.152Z,96652.59
2023-01-22T08:53:35.914Z,96663.03
2023-01-22T08:56:02.638Z,96660.97
2023-01-22T08:58:29.510Z,96663.31
2023-01-22T09:00:57.805Z,96663.47
2023-01-22T09:03:24.769Z,96678.25
2023-01-22T09:05:51.383Z,96666.97
2023-01-22T09:08:19.006Z,96660.09
2023-01-22T09:10:45.791Z,96669.19
2023-01-22T09:13:12.534Z,96682.41
2023-01-22T09:15:46.600Z,96676.44
2023-01-22T09:18:13.324Z,96678.41
2023-01-22T09:20:42.927Z,96677.97
2023-01-22T09:23:09.644Z,96682.09
2023-01-22T09:28:51.505Z,96686.19
2023-01-22T09:31:18.325Z,96684.47
2023-01-22T09:33:45.233Z,96691.72
2023-01-22T09:36:12.159Z,96684.38
2023-01-22T09:41:51.305Z,96691.13
2023-01-22T09:44:18.185Z,96703.38
2023-01-22T09:46:45.502Z,96697.28
2023-01-22T09:52:29.069Z,96704.19
2023-01-22T09:55:41.483Z,96693.41
2023-01-22T10:07:05.322Z,96694.59
2023-01-22T10:09:31.992Z,96700.81
2023-01-22T10:11:59.261Z,96715.22
2023-01-22T10:14:26.194Z,96696.41
2023-01-22T10:16:56.143Z,96702.13
2023-01-22T10:19:22.784Z,96711.44
2023-01-22T10:21:50.568Z,96699.69
2023-01-22T10:24:19.016Z,96714.56
2023-01-22T10:26:45.967Z,96702.56
2023-01-22T10:29:15.532Z,96700.19
2023-01-22T10:31:46.057Z,96707.81
2023-01-22T10:34:24.501Z,96699.81
2023-01-22T10:37:07.586Z,96700.88
2023-01-22T10:39:34.105Z,96705.34
2023-01-22T10:42:01.580Z,96705.25
2023-01-22T10:44:29.929Z,96702.69
2023-01-22T10:46:56.558Z,96703.25
2023-01-22T10:49:23.369Z,96700.84
2023-01-22T10:51:50.735Z,96691.47
2023-01-22T10:54:17.381Z,96699.22
2023-01-22T10:56:44.274Z,96708.66
2023-01-22T10:59:12.014Z,96703.16
2023-01-22T11:01:46.029Z,96693.41
2023-01-22T11:04:13.185Z,96687.19
2023-01-22T11:06:39.812Z,96699.47
2023-01-22T11:09:10.760Z,96697.63
2023-01-22T11:11:44.855Z,96693.31
2023-01-22T11:14:12.576Z,96694.06
2023-01-22T11:16:39.997Z,96702.06
2023-01-22T11:19:13.371Z,96696.16
2023-01-22T11:21:47.440Z,96704.66
2023-01-22T11:24:14.148Z,96699.63
2023-01-22T11:26:43.668Z,96693.00
2023-01-22T11:29:10.845Z,96712.34
2023-01-22T11:31:37.703Z,96707.25
2023-01-22T11:34:04.921Z,96698.13
2023-01-22T11:36:31.440Z,96695.22
2023-01-22T11:38:57.965Z,96693.88
2023-01-22T11:41:24.489Z,96692.53
2023-01-22T12:23:05.149Z,96693.13
2023-01-22T12:25:32.127Z,96699.63
2023-01-22T12:28:01.066Z,96697.06
2023-01-22T12:30:30.056Z,96695.00
2023-01-22T12:32:57.292Z,96701.66
2023-01-22T12:35:35.092Z,96696.97
2023-01-22T12:38:06.214Z,96699.66
2023-01-22T12:40:33.582Z,96694.88
2023-01-22T12:43:01.471Z,96692.53
2023-01-22T12:45:28.416Z,96700.72
2023-01-22T12:47:55.241Z,96705.09
2023-01-22T12:50:22.741Z,96709.50
2023-01-22T12:52:49.624Z,96695.13
2023-01-22T12:55:16.932Z,96698.69
2023-01-22T12:57:47.539Z,96703.16
2023-01-22T13:00:14.457Z,96690.41
2023-01-22T13:02:41.616Z,96707.09
2023-01-22T13:05:09.497Z,96692.75
2023-01-22T13:07:36.376Z,96698.53
2023-01-22T13:10:04.315Z,96687.28
2023-01-22T13:12:33.384Z,96696.28
2023-01-22T13:15:03.170Z,96685.22
2023-01-22T13:17:30.716Z,96690.81
2023-01-22T13:19:57.557Z,96688.22
2023-01-22T13:22:24.858Z,96692.59
2023-01-22T13:24:51.437Z,96699.19
2023-01-22T13:27:18.790Z,96694.94
2023-01-22T13:29:45.837Z,96699.22
2023-01-22T13:32:12.510Z,96705.53
2023-01-22T13:34:39.031Z,96702.50
2023-01-22T13:37:05.824Z,96704.63
2023-01-22T13:39:33.358Z,96702.13
2023-01-22T13:41:59.893Z,96707.69
2023-01-22T13:44:27.627Z,96711.13
2023-01-22T13:46:54.645Z,96716.03
2023-01-22T13:49:24.207Z,96714.34
2023-01-22T13:51:50.990Z,96717.88
2023-01-22T13:54:17.617Z,96708.28
2023-01-22T13:56:46.896Z,96737.00
2023-01-22T13:59:13.497Z,96708.28
2023-01-22T14:01:40.163Z,96709.22
2023-01-22T14:04:06.732Z,96714.53
2023-01-22T14:06:35.682Z,96723.56
2023-01-22T14:09:02.523Z,96729.84
2023-01-22T14:11:29.230Z,96733.81
2023-01-22T14:13:56.029Z,96747.88
2023-01-22T14:16:26.458Z,96732.56
2023-01-22T14:18:53.291Z,96748.94
2023-01-22T14:21:20.205Z,96742.03
2023-01-22T14:23:49.301Z,96747.00
2023-01-22T14:26:17.954Z,96743.75
2023-01-22T14:28:46.169Z,96754.22
2023-01-22T14:31:12.933Z,96743.34
2023-01-22T14:33:41.991Z,96761.88
2023-01-22T14:36:08.816Z,96754.25
2023-01-22T14:38:35.674Z,96762.88
2023-01-22T14:41:02.472Z,96772.38
2023-01-22T14:43:29.494Z,96765.56
2023-01-22T14:45:56.562Z,96775.88
2023-01-22T14:48:23.321Z,96763.06
2023-01-22T14:50:52.326Z,96766.72
2023-01-22T14:53:19.157Z,96778.28
2023-01-22T14:55:45.910Z,96758.19
2023-01-22T14:58:12.770Z,96770.09
2023-01-22T15:00:39.683Z,96770.59
2023-01-22T15:03:06.749Z,96777.63
2023-01-22T15:05:35.497Z,96769.25
2023-01-22T15:08:02.384Z,96774.22
2023-01-22T15:10:29.256Z,96768.78
2023-01-22T15:12:55.906Z,96771.41
2023-01-22T15:15:25.279Z,96772.91
2023-01-22T15:17:52.099Z,96771.38
2023-01-22T15:20:21.449Z,96773.97
2023-01-22T15:22:48.071Z,96777.44
2023-01-22T15:25:17.032Z,96778.84
2023-01-22T15:27:43.506Z,96796.53
2023-01-22T15:30:10.418Z,96793.41
2023-01-22T15:32:37.348Z,96798.44
2023-01-22T15:35:05.884Z,96794.66
2023-01-22T15:37:32.746Z,96796.38
2023-01-22T15:39:59.395Z,96795.09
2023-01-22T15:42:25.909Z,96785.28
2023-01-22T15:44:53.381Z,96808.78
2023-01-22T15:47:20.304Z,96789.25
2023-01-22T15:49:48.092Z,96792.50
2023-01-22T15:52:16.296Z,96785.63
2023-01-22T15:54:42.879Z,96784.53
2023-01-22T15:57:09.659Z,96791.88
2023-01-22T15:59:38.039Z,96784.75
2023-01-22T16:02:04.556Z,96793.94
2023-01-22T16:04:31.649Z,96781.97
2023-01-22T16:06:58.537Z,96794.81
2023-01-22T16:09:32.398Z,96802.97
2023-01-22T16:12:03.209Z,96795.16
2023-01-22T16:14:29.864Z,96794.47
2023-01-22T16:17:00.539Z,96799.75
2023-01-22T16:19:28.010Z,96803.91
2023-01-22T16:21:55.265Z,96810.56
2023-01-22T16:24:25.241Z,96811.34
2023-01-22T16:26:52.005Z,96833.81
2023-01-22T16:29:18.925Z,96817.91
2023-01-22T16:31:45.850Z,96828.47
2023-01-22T16:34:12.630Z,96822.84
2023-01-22T16:36:39.935Z,96826.22
2023-01-22T16:41:57.323Z,96832.34
2023-01-22T16:44:23.961Z,96832.94
2023-01-22T16:46:54.045Z,96836.63
2023-01-22T16:49:20.819Z,96838.59
2023-01-22T16:51:47.971Z,96838.09
2023-01-22T16:54:14.901Z,96843.56
2023-01-22T16:56:41.771Z,96854.75
2023-01-22T16:59:08.685Z,96843.66
2023-01-22T17:01:37.461Z,96850.94
2023-01-22T17:04:06.130Z,96852.06
2023-01-22T17:06:34.712Z,96849.72
2023-01-22T17:09:02.041Z,96854.34
2023-01-22T17:11:33.680Z,96843.56
2023-01-22T17:14:00.267Z,96850.88
2023-01-22T17:16:27.160Z,96856.56
2023-01-22T17:18:54.662Z,96856.38
2023-01-22T17:21:21.522Z,96857.19
2023-01-22T17:23:48.179Z,96861.72
2023-01-22T17:26:14.734Z,96857.75
2023-01-22T17:28:42.363Z,96866.41
2023-01-22T17:31:09.102Z,96862.25
2023-01-22T17:33:35.600Z,96874.28
2023-01-22T17:36:02.251Z,96871.06
2023-01-22T17:38:29.006Z,96879.09
2023-01-22T17:40:56.181Z,96879.72
2023-01-22T17:43:22.881Z,96881.22
2023-01-22T17:45:49.380Z,96874.41
2023-01-22T17:48:16.098Z,96885.44
2023-01-22T17:50:42.991Z,96870.34
2023-01-22T17:53:10.876Z,96877.56
2023-01-22T17:58:30.772Z,96879.88
2023-01-22T18:00:57.636Z,96888.16
2023-01-22T18:03:25.029Z,96901.84
2023-01-22T18:05:52.623Z,96878.28
2023-01-22T18:21:13.286Z,96895.00
2023-01-22T18:23:44.152Z,96895.88
2023-01-22T18:26:11.060Z,96899.03
2023-01-22T18:28:38.733Z,96903.66
2023-01-22T18:31:05.650Z,96904.88
2023-01-22T18:33:34.509Z,96909.53
2023-01-22T18:36:01.400Z,96917.31
2023-01-22T18:38:28.043Z,96913.84
2023-01-22T18:40:54.514Z,96912.16
2023-01-22T18:46:06.797Z,96911.56
2023-01-22T18:48:33.873Z,96917.81
2023-01-22T18:51:02.734Z,96912.50
2023-01-22T18:53:29.579Z,96913.66
2023-01-22T18:55:58.324Z,96912.88
2023-01-22T18:58:25.480Z,96917.25
2023-01-22T19:00:52.101Z,96918.91
2023-01-22T19:03:21.404Z,96920.00
2023-01-22T19:05:48.155Z,96910.84
2023-01-22T19:08:21.212Z,96919.22
2023-01-22T19:10:48.163Z,96929.28
2023-01-22T19:13:14.809Z,96915.84
2023-01-22T19:15:41.617Z,96918.31
2023-01-22T19:18:10.098Z,96912.06
2023-01-22T19:20:37.261Z,96900.53
2023-01-22T19:23:04.343Z,96907.00
2023-01-22T19:25:34.591Z,96915.97
2023-01-22T19:28:01.480Z,96919.03
2023-01-22T19:30:33.131Z,96909.94
2023-01-22T19:33:01.675Z,96920.44
2023-01-22T19:35:28.487Z,96912.84
2023-01-22T19:37:58.397Z,96921.38
2023-01-22T19:40:36.114Z,96923.50
2023-01-22T19:43:03.513Z,96914.47
2023-01-22T19:45:30.273Z,96918.03
2023-01-22T19:47:56.980Z,96917.91
2023-01-22T19:50:23.472Z,96918.31
2023-01-22T19:59:23.284Z,96928.91
2023-01-22T20:01:49.947Z,96912.97
2023-01-22T20:04:16.679Z,96931.41
2023-01-22T20:06:43.611Z,96925.06
2023-01-22T20:09:10.562Z,96936.69
2023-01-22T20:11:37.134Z,96941.84
2023-01-22T20:14:04.555Z,96934.34
2023-01-22T20:16:31.536Z,96932.59
2023-01-22T20:18:58.700Z,96934.84
2023-01-22T20:21:25.549Z,96945.97
2023-01-22T20:23:52.567Z,96944.13
2023-01-22T20:26:22.286Z,96971.69
2023-01-22T20:28:51.493Z,96962.84
2023-01-22T20:31:18.132Z,96941.75
2023-01-22T20:33:44.720Z,96945.75
2023-01-22T20:36:11.223Z,96941.19
2023-01-22T20:38:38.737Z,96942.09
2023-01-22T20:41:07.877Z,96945.56
2023-01-22T20:43:36.963Z,96951.00
2023-01-22T20:46:03.605Z,96940.66
2023-01-22T20:50:59.715Z,96949.66
2023-01-22T20:53:29.009Z,96942.63
2023-01-22T20:55:55.571Z,96945.13
2023-01-22T20:58:22.535Z,96941.59
2023-01-22T21:00:50.020Z,96936.69
2023-01-22T21:03:19.101Z,96949.94
2023-01-22T21:05:45.568Z,96941.28
2023-01-22T21:08:13.560Z,96947.47
2023-01-22T21:10:40.166Z,96954.09
2023-01-22T21:13:06.716Z,96939.75
2023-01-22T21:15:33.438Z,96937.19
2023-01-22T21:18:00.285Z,96955.69
2023-01-22T21:20:27.195Z,96938.31
2023-01-22T21:22:53.905Z,96940.91
2023-01-22T21:25:20.689Z,96937.81
2023-01-22T21:27:54.626Z,96935.25
2023-01-22T21:30:21.492Z,96942.81
2023-01-22T21:32:50.891Z,96938.44
2023-01-22T21:35:17.431Z,96935.06
2023-01-22T21:37:46.453Z,96942.66
2023-01-22T21:40:14.013Z,96950.22
2023-01-22T21:42:42.581Z,96941.22
2023-01-22T21:45:15.343Z,96945.28
2023-01-22T21:47:44.231Z,96937.13
2023-01-22T21:50:11.094Z,96933.66
2023-01-22T21:52:37.746Z,96945.75
2023-01-22T21:55:05.017Z,96935.72
2023-01-22T21:57:32.315Z,96936.50
2023-01-22T21:59:58.880Z,96937.97
2023-01-22T22:02:25.972Z,96940.09
2023-01-22T22:04:52.814Z,96934.66
2023-01-22T22:07:19.637Z,96942.94
2023-01-22T22:09:46.449Z,96936.44
2023-01-22T22:12:13.427Z,96952.03
2023-01-22T22:14:40.444Z,96928.88
2023-01-22T22:17:07.070Z,96927.47
2023-01-22T22:19:33.835Z,96936.81
2023-01-22T22:22:02.880Z,96934.53
2023-01-22T22:24:29.674Z,96932.84
2023-01-22T22:26:56.471Z,96920.59
2023-01-22T22:29:23.133Z,96915.19
2023-01-22T22:31:52.319Z,96924.38
2023-01-22T22:34:21.340Z,96922.13
2023-01-22T22:36:48.623Z,96937.50
2023-01-22T22:39:15.290Z,96934.97
2023-01-22T22:41:42.001Z,96938.94
2023-01-22T22:44:09.076Z,96931.63
2023-01-22T22:46:36.256Z,96916.00
2023-01-22T22:49:04.712Z,96929.41
2023-01-22T22:51:31.225Z,96931.19
2023-01-22T22:54:00.098Z,96923.25
2023-01-22T22:56:26.670Z,96930.97
2023-01-22T22:58:53.320Z,96919.53
2023-01-22T23:01:20.063Z,96922.59
2023-01-22T23:03:46.658Z,96914.81
2023-01-22T23:06:13.197Z,96914.69
2023-01-22T23:08:40.109Z,96913.94
2023-01-22T23:11:07.004Z,96915.69
2023-01-22T23:13:33.764Z,96911.97
2023-01-22T23:16:00.328Z,96910.59
2023-01-22T23:18:27.036Z,96908.75
2023-01-22T23:20:53.683Z,96915.19
2023-01-22T23:23:22.731Z,96917.34
2023-01-22T23:25:50.116Z,96912.56
2023-01-22T23:28:16.761Z,96901.44
2023-01-22T23:30:44.008Z,96910.97
2023-01-22T23:33:14.956Z,96915.75
2023-01-22T23:35:41.788Z,96925.19
2023-01-22T23:38:09.145Z,96906.50
2023-01-22T23:40:35.587Z,96916.63
2023-01-22T23:43:04.285Z,96931.34
2023-01-22T23:45:31.069Z,96916.38
2023-01-22T23:47:57.671Z,96908.84
2023-01-22T23:50:24.261Z,96917.00
2023-01-22T23:52:51.638Z,96901.13
2023-01-22T23:55:18.195Z,96905.84
2023-01-22T23:57:45.138Z,96897.66
